createdAt,value
2019-04-27T00:00:43.297Z,4.42
2019-04-27T00:03:35.034Z,5.47
2019-04-27T00:06:08.614Z,4.40
2019-04-27T00:08:44.539Z,4.08
2019-04-27T00:11:23.013Z,5.00
2019-04-27T00:13:53.750Z,6.45
2019-04-27T00:16:47.121Z,4.35
2019-04-27T00:19:18.494Z,5.37
2019-04-27T00:22:08.975Z,5.35
2019-04-27T00:24:39.660Z,4.62
2019-04-27T00:27:10.087Z,7.37
2019-04-27T00:29:40.432Z,6.80
2019-04-27T00:32:10.941Z,5.08
2019-04-27T00:34:43.020Z,6.75
2019-04-27T00:37:17.414Z,7.22
2019-04-27T00:40:04.542Z,6.78
2019-04-27T00:42:35.705Z,6.30
2019-04-27T00:45:08.140Z,8.40
2019-04-27T00:47:38.487Z,6.95
2019-04-27T00:50:09.938Z,6.95
2019-04-27T00:52:40.271Z,5.25
2019-04-27T00:55:10.669Z,5.72
2019-04-27T00:57:43.507Z,6.65
2019-04-27T01:00:33.724Z,5.28
2019-04-27T01:03:11.535Z,7.00
2019-04-27T01:05:43.056Z,7.85
2019-04-27T01:08:13.880Z,6.75
2019-04-27T01:10:44.343Z,6.35
2019-04-27T01:13:14.691Z,6.83
2019-04-27T01:15:45.041Z,5.58
2019-04-27T01:18:15.695Z,6.22
2019-04-27T01:20:46.085Z,7.75
2019-04-27T01:23:16.423Z,6.55
2019-04-27T01:25:48.850Z,6.37
2019-04-27T01:28:29.137Z,9.23
2019-04-27T01:31:02.079Z,7.30
2019-04-27T01:33:32.422Z,6.20
2019-04-27T01:36:02.756Z,6.12
2019-04-27T01:38:33.084Z,6.67
2019-04-27T01:41:03.486Z,7.08
2019-04-27T01:43:33.808Z,7.03
2019-04-27T01:46:04.220Z,6.85
2019-04-27T01:48:34.566Z,6.85
2019-04-27T01:51:05.229Z,9.45
2019-04-27T01:53:35.559Z,7.08
2019-04-27T01:56:05.977Z,6.85
2019-04-27T01:58:36.333Z,8.48
2019-04-27T02:01:18.737Z,8.05
2019-04-27T02:03:50.773Z,7.40
2019-04-27T02:06:21.128Z,6.45
2019-04-27T02:08:51.457Z,8.38
2019-04-27T02:11:21.804Z,8.60
2019-04-27T02:13:52.137Z,8.58
2019-04-27T02:16:22.477Z,7.30
2019-04-27T02:18:52.821Z,6.78
2019-04-27T02:21:23.162Z,8.03
2019-04-27T02:23:53.496Z,8.28
2019-04-27T02:26:25.315Z,5.53
2019-04-27T02:29:05.953Z,8.23
2019-04-27T02:31:56.012Z,7.60
2019-04-27T02:34:44.166Z,7.40
2019-04-27T02:37:15.961Z,5.87
2019-04-27T02:39:46.289Z,7.33
2019-04-27T02:42:16.623Z,6.90
2019-04-27T02:44:49.129Z,7.10
2019-04-27T02:47:20.792Z,7.12
2019-04-27T02:49:51.382Z,8.53
2019-04-27T02:52:23.377Z,6.47
2019-04-27T02:54:53.712Z,7.78
2019-04-27T02:57:24.057Z,11.03
2019-04-27T02:59:54.394Z,8.05
2019-04-27T03:02:26.393Z,7.30
2019-04-27T03:04:56.740Z,7.78
2019-04-27T03:07:27.066Z,7.47
2019-04-27T03:09:59.600Z,7.65
2019-04-27T03:12:31.083Z,6.58
2019-04-27T03:15:12.381Z,8.38
2019-04-27T03:17:44.392Z,6.78
2019-04-27T03:20:20.168Z,8.10
2019-04-27T03:23:00.055Z,8.53
2019-04-27T03:25:32.731Z,6.25
2019-04-27T03:28:10.902Z,7.80
2019-04-27T03:30:43.016Z,6.28
2019-04-27T03:33:13.580Z,6.83
2019-04-27T03:35:44.350Z,6.87
2019-04-27T03:38:15.026Z,7.42
2019-04-27T03:40:45.368Z,8.48
2019-04-27T03:43:19.744Z,7.12
2019-04-27T03:45:52.175Z,8.33
2019-04-27T03:48:21.585Z,9.05
2019-04-27T03:50:56.572Z,8.18
2019-04-27T03:53:34.391Z,5.70
2019-04-27T03:56:12.524Z,8.98
2019-04-27T03:58:56.588Z,11.90
2019-04-27T04:01:26.927Z,7.62
2019-04-27T04:03:59.746Z,8.35
2019-04-27T04:06:29.781Z,9.85
2019-04-27T04:09:00.441Z,8.53
2019-04-27T04:11:34.143Z,5.33
2019-04-27T04:14:21.155Z,5.10
2019-04-27T04:16:59.156Z,7.50
2019-04-27T04:19:31.567Z,8.23
2019-04-27T04:22:00.069Z,5.15
2019-04-27T04:24:31.807Z,7.80
2019-04-27T04:27:02.331Z,7.83
2019-04-27T04:29:32.675Z,6.42
2019-04-27T04:32:03.022Z,5.92
2019-04-27T04:34:33.355Z,5.25
2019-04-27T04:37:04.086Z,4.67
2019-04-27T04:39:34.439Z,7.05
2019-04-27T04:42:06.500Z,5.87
2019-04-27T04:44:44.257Z,4.33
2019-04-27T04:47:16.256Z,6.10
2019-04-27T04:49:46.596Z,6.40
2019-04-27T04:52:19.555Z,8.28
2019-04-27T04:54:49.669Z,5.87
2019-04-27T04:57:21.842Z,8.10
2019-04-27T04:59:52.127Z,8.78
2019-04-27T05:02:22.467Z,6.83
2019-04-27T05:04:52.812Z,7.40
2019-04-27T05:07:23.161Z,7.30
2019-04-27T05:09:53.567Z,7.47
2019-04-27T05:12:23.898Z,9.60
2019-04-27T05:14:54.254Z,6.58
2019-04-27T05:17:24.594Z,6.87
2019-04-27T05:19:56.174Z,6.72
2019-04-27T05:22:26.516Z,5.28
2019-04-27T05:25:03.117Z,5.55
2019-04-27T05:27:33.459Z,9.60
2019-04-27T05:30:04.663Z,6.25
2019-04-27T05:32:35.019Z,9.73
2019-04-27T05:35:06.456Z,6.25
2019-04-27T05:37:38.876Z,8.38
2019-04-27T05:40:09.264Z,7.22
2019-04-27T05:42:39.827Z,6.53
2019-04-27T05:45:19.974Z,7.65
2019-04-27T05:47:55.163Z,8.75
2019-04-27T05:50:35.505Z,7.05
2019-04-27T05:52:59.592Z,8.03
2019-04-27T05:55:29.565Z,8.98
2019-04-27T05:58:00.169Z,8.45
2019-04-27T06:00:30.523Z,8.13
2019-04-27T06:03:00.854Z,6.03
2019-04-27T06:05:31.207Z,5.72
2019-04-27T06:08:01.549Z,4.67
2019-04-27T06:10:31.896Z,6.75
2019-04-27T06:13:02.227Z,7.22
2019-04-27T06:15:32.574Z,7.15
2019-04-27T06:18:02.912Z,7.97
2019-04-27T06:20:33.253Z,7.55
2019-04-27T06:23:03.585Z,5.90
2019-04-27T06:25:33.950Z,5.08
2019-04-27T06:28:04.293Z,6.22
2019-04-27T06:30:34.639Z,5.53
2019-04-27T06:33:04.983Z,8.15
2019-04-27T06:35:47.249Z,9.00
2019-04-27T06:38:19.051Z,8.80
2019-04-27T06:40:49.417Z,5.47
2019-04-27T06:43:19.765Z,5.85
2019-04-27T06:45:50.123Z,7.80
2019-04-27T06:48:20.458Z,6.55
2019-04-27T06:51:02.740Z,6.22
2019-04-27T06:53:23.673Z,5.37
2019-04-27T06:55:54.019Z,7.40
2019-04-27T06:58:24.366Z,7.12
2019-04-27T07:00:54.722Z,10.55
2019-04-27T07:03:25.058Z,7.22
2019-04-27T07:05:55.407Z,6.65
2019-04-27T07:08:25.756Z,8.48
2019-04-27T07:10:56.168Z,7.90
2019-04-27T07:13:26.519Z,6.40
2019-04-27T07:15:56.886Z,3.62
2019-04-27T07:18:28.572Z,9.88
2019-04-27T07:20:59.060Z,6.03
2019-04-27T07:23:29.413Z,5.40
2019-04-27T07:25:59.975Z,8.65
2019-04-27T07:28:30.279Z,5.20
2019-04-27T07:31:00.631Z,4.75
2019-04-27T07:33:30.973Z,5.70
2019-04-27T07:36:02.868Z,3.80
2019-04-27T07:38:34.384Z,6.90
2019-04-27T07:41:04.737Z,4.67
2019-04-27T07:43:49.396Z,7.17
2019-04-27T07:46:19.760Z,4.08
2019-04-27T07:48:50.924Z,4.87
2019-04-27T07:51:31.547Z,5.22
2019-04-27T07:53:53.368Z,3.33
2019-04-27T07:56:23.702Z,3.47
2019-04-27T07:58:54.036Z,4.33
2019-04-27T08:01:24.373Z,4.75
2019-04-27T08:03:54.708Z,4.85
2019-04-27T08:06:25.049Z,4.90
2019-04-27T08:08:55.386Z,4.35
2019-04-27T08:11:25.727Z,5.85
2019-04-27T08:13:56.081Z,4.62
2019-04-27T08:16:26.425Z,3.60
2019-04-27T08:18:56.806Z,5.28
2019-04-27T08:21:28.836Z,5.85
2019-04-27T08:23:59.304Z,8.23
2019-04-27T08:26:31.273Z,6.03
2019-04-27T08:29:03.264Z,6.12
2019-04-27T08:31:35.246Z,6.35
2019-04-27T08:34:08.568Z,7.90
2019-04-27T08:36:38.946Z,10.30
2019-04-27T08:39:09.481Z,6.95
2019-04-27T08:41:39.893Z,7.53
2019-04-27T08:44:10.237Z,11.45
2019-04-27T08:46:40.584Z,9.53
2019-04-27T08:49:10.918Z,14.85
2019-04-27T08:51:41.543Z,11.48
2019-04-27T08:54:12.003Z,10.50
2019-04-27T08:56:42.346Z,9.48
2019-04-27T08:59:12.698Z,13.10
2019-04-27T09:01:43.036Z,9.00
2019-04-27T09:04:13.423Z,10.78
2019-04-27T09:06:45.372Z,9.70
2019-04-27T09:12:20.675Z,9.95
2019-04-27T09:14:52.655Z,12.37
2019-04-27T09:17:27.039Z,13.30
2019-04-27T09:19:59.605Z,13.83
2019-04-27T09:22:31.241Z,13.45
2019-04-27T09:25:01.610Z,14.68
2019-04-27T09:27:32.914Z,11.97
2019-04-27T09:30:03.834Z,16.25
2019-04-27T09:32:35.417Z,20.72
2019-04-27T09:35:07.741Z,19.23
2019-04-27T09:37:38.111Z,18.00
2019-04-27T09:40:08.678Z,18.35
2019-04-27T09:42:39.025Z,12.23
2019-04-27T09:45:10.676Z,13.50
2019-04-27T09:47:41.013Z,17.15
2019-04-27T09:50:11.770Z,11.00
2019-04-27T09:52:42.116Z,15.72
2019-04-27T09:55:12.691Z,9.70
2019-04-27T09:57:43.102Z,13.13
2019-04-27T10:00:15.932Z,11.43
2019-04-27T10:02:46.648Z,12.35
2019-04-27T10:05:17.228Z,10.88
2019-04-27T10:07:47.748Z,13.28
2019-04-27T10:10:20.242Z,11.57
2019-04-27T10:12:50.576Z,15.78
2019-04-27T10:15:20.920Z,11.48
2019-04-27T10:17:51.251Z,13.53
2019-04-27T10:20:21.611Z,10.43
2019-04-27T10:22:52.093Z,11.12
2019-04-27T10:25:24.224Z,10.38
2019-04-27T10:28:00.268Z,13.43
2019-04-27T10:30:31.924Z,12.47
2019-04-27T10:33:02.276Z,18.25
2019-04-27T10:35:32.616Z,11.80
2019-04-27T10:38:03.001Z,10.88
2019-04-27T10:40:33.299Z,11.08
2019-04-27T10:43:03.656Z,11.38
2019-04-27T10:45:35.808Z,9.20
2019-04-27T10:48:06.027Z,9.20
2019-04-27T10:50:36.634Z,15.50
2019-04-27T10:53:08.176Z,12.07
2019-04-27T10:55:38.510Z,7.40
2019-04-27T10:58:08.849Z,8.03
2019-04-27T11:00:43.687Z,11.65
2019-04-27T11:03:16.620Z,12.37
2019-04-27T11:05:54.948Z,12.40
2019-04-27T11:08:25.283Z,11.53
2019-04-27T11:10:56.384Z,10.53
2019-04-27T11:13:27.038Z,10.40
2019-04-27T11:15:57.454Z,10.15
2019-04-27T11:18:28.772Z,11.25
2019-04-27T11:20:59.128Z,11.65
2019-04-27T11:23:29.463Z,8.58
2019-04-27T11:26:02.377Z,11.95
2019-04-27T11:28:32.211Z,9.95
2019-04-27T11:31:02.556Z,8.10
2019-04-27T11:33:32.905Z,13.93
2019-04-27T11:36:08.012Z,9.00
2019-04-27T11:38:38.300Z,7.65
2019-04-27T11:41:08.638Z,9.13
2019-04-27T11:43:38.969Z,6.47
2019-04-27T11:46:09.324Z,9.23
2019-04-27T11:48:39.660Z,5.62
2019-04-27T11:51:11.063Z,9.18
2019-04-27T11:53:41.540Z,6.15
2019-04-27T11:56:12.877Z,8.80
2019-04-27T11:58:43.222Z,6.10
2019-04-27T12:01:13.569Z,7.87
2019-04-27T12:03:44.541Z,8.73
2019-04-27T12:06:15.785Z,9.18
2019-04-27T12:08:46.207Z,6.80
2019-04-27T12:11:16.610Z,9.95
2019-04-27T12:13:47.269Z,13.83
2019-04-27T12:16:17.745Z,8.13
2019-04-27T12:18:49.222Z,11.03
2019-04-27T12:21:19.662Z,10.63
2019-04-27T12:23:50.003Z,10.60
2019-04-27T12:26:27.759Z,11.03
2019-04-27T12:28:59.848Z,13.13
2019-04-27T12:31:31.858Z,10.03
2019-04-27T12:34:02.202Z,9.78
2019-04-27T12:36:32.558Z,15.40
2019-04-27T12:39:03.267Z,7.10
2019-04-27T12:41:35.386Z,6.67
2019-04-27T12:44:07.816Z,7.60
2019-04-27T12:46:38.218Z,7.65
2019-04-27T12:49:08.889Z,7.00
2019-04-27T12:51:39.322Z,8.08
2019-04-27T12:54:11.373Z,10.65
2019-04-27T12:56:46.250Z,7.17
2019-04-27T12:59:18.229Z,7.40
2019-04-27T13:01:48.560Z,8.30
2019-04-27T13:04:18.909Z,4.35
2019-04-27T13:06:49.255Z,7.75
2019-04-27T13:09:19.598Z,6.90
2019-04-27T13:11:49.933Z,7.78
2019-04-27T13:14:20.294Z,7.15
2019-04-27T13:16:50.635Z,6.28
2019-04-27T13:19:20.972Z,5.97
2019-04-27T13:21:51.309Z,7.55
2019-04-27T13:24:21.649Z,7.05
2019-04-27T13:26:51.978Z,4.95
2019-04-27T13:29:22.310Z,5.70
2019-04-27T13:31:52.653Z,3.70
2019-04-27T13:34:22.991Z,5.40
2019-04-27T13:36:53.706Z,4.17
2019-04-27T13:39:25.766Z,7.45
2019-04-27T13:41:56.380Z,5.60
2019-04-27T13:44:26.793Z,8.70
2019-04-27T13:47:17.177Z,7.80
2019-04-27T13:50:01.156Z,5.33
2019-04-27T13:52:31.562Z,7.28
2019-04-27T13:55:01.905Z,11.35
2019-04-27T13:57:32.246Z,5.83
2019-04-27T14:00:02.602Z,7.12
2019-04-27T14:02:34.934Z,5.75
2019-04-27T14:05:07.335Z,7.40
2019-04-27T14:07:40.630Z,5.58
2019-04-27T14:10:10.126Z,4.95
2019-04-27T14:12:40.462Z,7.62
2019-04-27T14:15:10.940Z,6.90
2019-04-27T14:17:41.350Z,8.33
2019-04-27T14:20:11.764Z,9.48
2019-04-27T14:22:42.108Z,8.13
2019-04-27T14:25:12.520Z,5.17
2019-04-27T14:27:42.862Z,7.95
2019-04-27T14:30:15.644Z,6.50
2019-04-27T14:32:46.024Z,7.90
2019-04-27T14:35:18.031Z,7.67
2019-04-27T14:37:50.295Z,6.50
2019-04-27T14:40:21.725Z,8.38
2019-04-27T14:42:53.672Z,8.08
2019-04-27T14:45:25.336Z,10.08
2019-04-27T14:47:55.632Z,13.15
2019-04-27T14:50:25.987Z,8.78
2019-04-27T14:52:59.001Z,10.23
2019-04-27T14:55:30.125Z,9.13
2019-04-27T14:58:00.516Z,9.55
2019-04-27T15:00:30.862Z,10.58
2019-04-27T15:03:01.215Z,15.55
2019-04-27T15:05:31.613Z,10.25
2019-04-27T15:08:08.138Z,10.72
2019-04-27T15:10:36.110Z,10.30
2019-04-27T15:13:07.952Z,9.85
2019-04-27T15:15:40.106Z,7.78
2019-04-27T15:18:10.456Z,11.88
2019-04-27T15:20:46.611Z,11.22
2019-04-27T15:23:17.089Z,7.30
2019-04-27T15:25:47.455Z,9.70
2019-04-27T15:28:19.421Z,9.00
2019-04-27T15:30:54.078Z,8.15
2019-04-27T15:33:42.230Z,8.20
2019-04-27T15:36:30.619Z,11.53
2019-04-27T15:39:03.520Z,9.18
2019-04-27T15:41:35.589Z,7.42
2019-04-27T15:44:06.960Z,8.65
2019-04-27T15:46:49.845Z,12.68
2019-04-27T15:49:20.182Z,10.30
2019-04-27T15:51:54.381Z,9.58
2019-04-27T15:54:29.079Z,9.95
2019-04-27T15:56:54.627Z,11.08
2019-04-27T15:59:32.734Z,12.43
2019-04-27T16:02:00.172Z,11.68
2019-04-27T16:04:30.506Z,7.58
2019-04-27T16:07:00.844Z,11.68
2019-04-27T16:09:31.195Z,11.10
2019-04-27T16:12:09.921Z,9.70
2019-04-27T16:14:36.370Z,10.88
2019-04-27T16:17:08.136Z,12.15
2019-04-27T16:19:40.673Z,6.22
2019-04-27T16:22:09.888Z,9.48
2019-04-27T16:24:40.241Z,8.10
2019-04-27T16:27:10.581Z,5.97
2019-04-27T16:29:40.926Z,9.23
2019-04-27T16:32:11.567Z,11.25
2019-04-27T16:34:41.982Z,9.25
2019-04-27T16:37:18.370Z,9.00
2019-04-27T16:39:47.510Z,8.85
2019-04-27T16:42:18.610Z,10.53
2019-04-27T16:44:53.049Z,6.80
2019-04-27T16:47:24.481Z,8.35
2019-04-27T16:49:53.297Z,5.90
2019-04-27T16:52:23.642Z,6.17
2019-04-27T16:54:57.563Z,9.55
2019-04-27T16:57:28.123Z,8.40
2019-04-27T17:00:01.055Z,6.35
2019-04-27T17:02:30.543Z,5.03
2019-04-27T17:05:00.906Z,5.58
2019-04-27T17:07:37.435Z,7.40
2019-04-27T17:10:04.714Z,5.30
2019-04-27T17:12:44.689Z,4.17
2019-04-27T17:15:28.239Z,5.70
2019-04-27T17:18:19.989Z,4.67
2019-04-27T17:20:59.266Z,8.10
2019-04-27T17:23:31.156Z,6.33
2019-04-27T17:26:06.251Z,8.80
2019-04-27T17:28:37.459Z,8.65
2019-04-27T17:31:08.551Z,6.87
2019-04-27T17:33:40.366Z,6.12
2019-04-27T17:36:12.178Z,8.05
2019-04-27T17:38:47.235Z,5.28
2019-04-27T17:41:14.818Z,7.05
2019-04-27T17:43:45.169Z,7.92
2019-04-27T17:46:15.552Z,5.47
2019-04-27T17:48:45.893Z,7.28
2019-04-27T17:51:16.233Z,6.90
2019-04-27T17:53:49.681Z,6.30
2019-04-27T17:56:18.709Z,6.62
2019-04-27T17:58:49.041Z,7.17
2019-04-27T18:01:23.391Z,7.20
2019-04-27T18:03:59.083Z,6.42
2019-04-27T18:06:24.468Z,4.47
2019-04-27T18:09:00.728Z,7.60
2019-04-27T18:11:28.787Z,11.22
2019-04-27T18:14:00.360Z,6.42
2019-04-27T18:16:34.367Z,6.03
2019-04-27T18:19:08.311Z,5.25
2019-04-27T18:21:38.694Z,5.00
2019-04-27T18:24:13.595Z,6.60
2019-04-27T18:26:51.983Z,6.80
2019-04-27T18:29:22.920Z,7.33
2019-04-27T18:31:54.594Z,8.23
2019-04-27T18:34:25.893Z,7.80
2019-04-27T18:36:56.238Z,7.30
2019-04-27T18:39:26.586Z,5.12
2019-04-27T18:41:58.492Z,6.42
2019-04-27T18:44:31.855Z,7.90
2019-04-27T18:47:02.412Z,4.53
2019-04-27T18:49:51.998Z,8.35
2019-04-27T18:52:26.933Z,6.33
2019-04-27T18:54:57.272Z,6.58
2019-04-27T18:57:27.997Z,7.65
2019-04-27T18:59:59.653Z,5.65
2019-04-27T19:02:50.399Z,7.95
2019-04-27T19:05:20.926Z,6.25
2019-04-27T19:07:51.255Z,7.87
2019-04-27T19:10:21.838Z,11.18
2019-04-27T19:12:52.175Z,7.70
2019-04-27T19:15:22.507Z,7.00
2019-04-27T19:17:52.855Z,7.28
2019-04-27T19:20:23.188Z,10.38
2019-04-27T19:22:53.517Z,6.85
2019-04-27T19:25:28.808Z,5.67
2019-04-27T19:28:08.400Z,6.65
2019-04-27T19:30:40.830Z,7.00
2019-04-27T19:33:11.171Z,6.53
2019-04-27T19:35:41.507Z,13.18
2019-04-27T19:38:11.903Z,4.70
2019-04-27T19:40:42.249Z,9.15
2019-04-27T19:43:12.670Z,6.53
2019-04-27T19:45:43.069Z,7.08
2019-04-27T19:48:13.691Z,7.78
2019-04-27T19:50:44.036Z,7.42
2019-04-27T19:53:14.375Z,4.72
2019-04-27T19:55:46.358Z,8.10
2019-04-27T19:58:19.675Z,5.75
2019-04-27T20:00:50.830Z,7.58
2019-04-27T20:03:22.877Z,6.72
2019-04-27T20:05:53.470Z,5.90
2019-04-27T20:08:25.448Z,9.18
2019-04-27T20:10:56.134Z,3.98
2019-04-27T20:13:26.477Z,3.10
2019-04-27T20:15:57.556Z,4.72
2019-04-27T20:18:28.035Z,2.37
2019-04-27T20:20:58.374Z,2.77
2019-04-27T20:23:28.713Z,3.08
2019-04-27T20:25:59.054Z,3.72
2019-04-27T20:28:31.438Z,5.22
2019-04-27T20:31:02.804Z,5.55
2019-04-27T20:33:34.205Z,4.85
2019-04-27T20:36:04.616Z,4.40
2019-04-27T20:38:34.943Z,3.70
2019-04-27T20:41:17.860Z,7.67
2019-04-27T20:43:48.183Z,3.15
2019-04-27T20:46:22.517Z,3.87
2019-04-27T20:48:51.614Z,3.55
2019-04-27T20:51:23.593Z,3.15
2019-04-27T20:53:55.561Z,4.47
2019-04-27T20:56:25.885Z,1.82
2019-04-27T20:58:56.221Z,2.55
2019-04-27T21:01:26.546Z,6.20
2019-04-27T21:03:58.525Z,5.20
2019-04-27T21:06:41.008Z,5.70
2019-04-27T21:09:13.746Z,2.80
2019-04-27T21:11:47.714Z,2.92
2019-04-27T21:14:18.124Z,3.60
2019-04-27T21:16:49.023Z,4.80
2019-04-27T21:19:31.388Z,5.20
2019-04-27T21:22:01.659Z,4.83
2019-04-27T21:24:31.997Z,5.35
2019-04-27T21:27:02.320Z,3.10
2019-04-27T21:29:32.649Z,4.50
2019-04-27T21:32:02.998Z,4.00
2019-04-27T21:34:33.308Z,4.85
2019-04-27T21:37:03.636Z,3.67
2019-04-27T21:39:33.962Z,3.17
2019-04-27T21:42:04.377Z,3.52
2019-04-27T21:44:34.708Z,4.45
2019-04-27T21:47:05.112Z,2.52
2019-04-27T21:49:35.440Z,6.35
2019-04-27T21:52:07.416Z,3.22
2019-04-27T21:54:41.077Z,4.62
2019-04-27T21:57:12.784Z,4.15
2019-04-27T21:59:43.312Z,2.72
2019-04-27T22:02:14.230Z,4.55
2019-04-27T22:04:44.567Z,6.00
2019-04-27T22:07:14.912Z,1.67
2019-04-27T22:09:45.235Z,4.28
2019-04-27T22:12:15.576Z,3.55
2019-04-27T22:14:45.900Z,1.80
2019-04-27T22:17:16.228Z,4.28
2019-04-27T22:19:46.552Z,3.85
2019-04-27T22:22:18.527Z,9.75
2019-04-27T22:24:48.856Z,6.72
2019-04-27T22:27:20.726Z,4.85
2019-04-27T22:29:52.679Z,5.22
2019-04-27T22:32:23.104Z,9.33
2019-04-27T22:34:53.443Z,6.45
2019-04-27T22:37:23.771Z,8.00
2019-04-27T22:39:55.738Z,5.25
2019-04-27T22:42:55.848Z,7.35
2019-04-27T22:45:27.821Z,5.00
2019-04-27T22:47:58.154Z,5.47
2019-04-27T22:50:28.489Z,8.05
2019-04-27T22:52:58.830Z,4.45
2019-04-27T22:55:30.930Z,2.60
2019-04-27T22:58:16.011Z,8.53
2019-04-27T23:00:48.054Z,6.10
2019-04-27T23:03:21.143Z,5.55
2019-04-27T23:05:51.604Z,4.00
2019-04-27T23:08:22.706Z,2.62
2019-04-27T23:10:53.148Z,3.67
2019-04-27T23:13:23.550Z,6.47
2019-04-27T23:15:55.517Z,5.45
2019-04-27T23:18:25.846Z,4.28
2019-04-27T23:21:04.140Z,4.20
2019-04-27T23:23:34.472Z,2.72
2019-04-27T23:26:04.807Z,5.37
2019-04-27T23:28:35.148Z,3.15
2019-04-27T23:31:11.049Z,10.15
2019-04-27T23:33:43.038Z,3.72
2019-04-27T23:36:13.363Z,4.28
2019-04-27T23:38:52.617Z,1.50
2019-04-27T23:41:22.954Z,4.15
2019-04-27T23:43:53.284Z,4.97
2019-04-27T23:46:27.311Z,2.20
2019-04-27T23:48:57.600Z,2.70
2019-04-27T23:51:32.271Z,2.37
2019-04-27T23:54:02.603Z,3.70
2019-04-27T23:56:32.947Z,3.40
2019-04-27T23:59:03.625Z,2.85
